createdAt,value
2022-12-31T00:00:29.253Z,93774.72
2022-12-31T00:01:32.124Z,93781.69
2022-12-31T00:02:33.728Z,93777.81
2022-12-31T00:03:35.356Z,93775.97
2022-12-31T00:04:36.890Z,93783.22
2022-12-31T00:05:38.429Z,93773.91
2022-12-31T00:06:39.991Z,93781.81
2022-12-31T00:08:42.154Z,93785.41
2022-12-31T00:09:43.654Z,93793.31
2022-12-31T00:10:45.201Z,93789.59
2022-12-31T00:11:46.809Z,93787.13
2022-12-31T00:12:48.411Z,93774.34
2022-12-31T00:13:50.963Z,93786.88
2022-12-31T00:14:52.505Z,93778.63
2022-12-31T00:15:54.046Z,93788.22
2022-12-31T00:16:56.917Z,93784.75
2022-12-31T00:17:58.438Z,93785.84
2022-12-31T00:19:00.950Z,93789.88
2022-12-31T00:20:02.587Z,93792.94
2022-12-31T00:21:08.585Z,93795.22
2022-12-31T00:22:10.128Z,93791.66
2022-12-31T00:23:11.726Z,93795.09
2022-12-31T00:24:13.233Z,93789.81
2022-12-31T00:25:14.893Z,93796.09
2022-12-31T00:26:18.393Z,93790.47
2022-12-31T00:27:19.910Z,93799.69
2022-12-31T00:28:21.395Z,93796.53
2022-12-31T00:29:23.104Z,93796.75
2022-12-31T00:30:24.573Z,93806.00
2022-12-31T00:31:27.775Z,93794.47
2022-12-31T00:32:45.920Z,93802.00
2022-12-31T00:33:47.729Z,93810.81
2022-12-31T00:34:49.284Z,93806.81
2022-12-31T00:35:50.766Z,93814.69
2022-12-31T00:36:53.277Z,93813.88
2022-12-31T00:37:54.763Z,93802.00
2022-12-31T00:38:57.802Z,93813.34
2022-12-31T00:39:59.364Z,93811.59
2022-12-31T00:41:01.055Z,93810.94
2022-12-31T00:42:02.565Z,93801.28
2022-12-31T00:43:04.056Z,93796.81
2022-12-31T00:44:05.771Z,93804.78
2022-12-31T00:45:08.250Z,93809.69
2022-12-31T00:46:11.212Z,93807.97
2022-12-31T00:47:12.740Z,93818.84
2022-12-31T00:48:15.575Z,93820.41
2022-12-31T00:49:17.532Z,93810.78
2022-12-31T00:50:19.040Z,93815.78
2022-12-31T00:51:22.611Z,93823.69
2022-12-31T00:52:24.121Z,93819.50
2022-12-31T00:53:25.948Z,93818.59
2022-12-31T00:54:27.478Z,93819.88
2022-12-31T00:55:30.281Z,93832.66
2022-12-31T00:56:32.281Z,93825.13
2022-12-31T00:57:33.844Z,93827.75
2022-12-31T00:58:35.774Z,93832.91
2022-12-31T00:59:37.246Z,93833.28
2022-12-31T01:00:39.319Z,93835.75
2022-12-31T01:01:42.044Z,93832.47
2022-12-31T01:02:43.853Z,93821.25
2022-12-31T01:03:48.546Z,93821.59
2022-12-31T01:04:50.233Z,93826.00
2022-12-31T01:05:52.189Z,93827.41
2022-12-31T01:06:53.707Z,93826.75
2022-12-31T01:07:55.369Z,93828.72
2022-12-31T01:08:56.947Z,93826.28
2022-12-31T01:09:58.441Z,93829.38
2022-12-31T01:11:01.221Z,93823.75
2022-12-31T01:12:02.730Z,93831.66
2022-12-31T01:13:04.313Z,93835.09
2022-12-31T01:14:19.272Z,93819.06
2022-12-31T01:15:20.757Z,93813.50
2022-12-31T01:16:24.384Z,93822.94
2022-12-31T01:17:25.863Z,93810.50
2022-12-31T01:18:27.366Z,93817.22
2022-12-31T01:19:30.249Z,93812.25
2022-12-31T01:20:36.065Z,93811.88
2022-12-31T01:21:38.820Z,93811.28
2022-12-31T01:22:40.305Z,93811.03
2022-12-31T01:23:42.402Z,93810.78
2022-12-31T01:24:43.947Z,93813.94
2022-12-31T01:25:45.444Z,93811.41
2022-12-31T01:26:47.672Z,93814.22
2022-12-31T01:27:49.186Z,93828.34
2022-12-31T01:28:50.805Z,93817.81
2022-12-31T01:29:52.336Z,93833.81
2022-12-31T01:30:54.000Z,93836.75
2022-12-31T01:31:55.508Z,93841.34
2022-12-31T01:32:57.481Z,93842.09
2022-12-31T01:33:58.980Z,93841.28
2022-12-31T01:35:01.889Z,93844.22
2022-12-31T01:36:05.157Z,93847.88
2022-12-31T01:37:06.629Z,93846.31
2022-12-31T01:38:08.124Z,93844.09
2022-12-31T01:39:11.472Z,93845.03
2022-12-31T01:40:13.209Z,93849.34
2022-12-31T01:41:17.551Z,93844.69
2022-12-31T01:42:19.099Z,93838.38
2022-12-31T01:43:21.055Z,93842.25
2022-12-31T01:44:47.146Z,93839.00
2022-12-31T01:45:52.400Z,93832.75
2022-12-31T01:46:56.481Z,93837.38
2022-12-31T01:48:00.030Z,93838.81
2022-12-31T01:49:04.727Z,93849.44
2022-12-31T01:50:16.148Z,93845.47
2022-12-31T01:51:17.914Z,93850.00
2022-12-31T01:52:22.022Z,93854.34
2022-12-31T01:53:23.599Z,93858.44
2022-12-31T01:54:28.800Z,93847.00
2022-12-31T01:55:35.772Z,93855.91
2022-12-31T01:56:40.293Z,93855.56
2022-12-31T01:57:43.806Z,93857.19
2022-12-31T01:58:49.898Z,93859.19
2022-12-31T01:59:53.127Z,93856.19
2022-12-31T02:00:57.430Z,93860.53
2022-12-31T02:01:59.661Z,93864.75
2022-12-31T02:03:01.897Z,93873.41
2022-12-31T02:04:19.858Z,93871.44
2022-12-31T02:05:29.109Z,93870.78
2022-12-31T02:06:37.345Z,93875.88
2022-12-31T02:07:39.404Z,93867.78
2022-12-31T02:08:42.402Z,93871.16
2022-12-31T02:09:44.316Z,93870.06
2022-12-31T02:10:45.797Z,93877.44
2022-12-31T02:11:47.371Z,93869.00
2022-12-31T02:12:49.111Z,93873.69
2022-12-31T02:13:57.973Z,93869.69
2022-12-31T02:15:00.046Z,93877.59
2022-12-31T02:16:10.602Z,93877.44
2022-12-31T02:17:23.216Z,93872.25
2022-12-31T02:18:35.966Z,93872.25
2022-12-31T02:20:13.442Z,93879.97
2022-12-31T02:21:39.502Z,93886.13
2022-12-31T02:22:59.366Z,93888.94
2022-12-31T02:24:29.549Z,93891.41
2022-12-31T02:25:50.222Z,93888.31
2022-12-31T02:26:59.526Z,93884.31
2022-12-31T02:28:14.419Z,93882.31
2022-12-31T02:29:40.229Z,93887.97
2022-12-31T02:30:47.777Z,93882.25
2022-12-31T02:31:53.451Z,93881.25
2022-12-31T02:33:11.772Z,93888.41
2022-12-31T02:34:20.624Z,93888.03
2022-12-31T02:35:28.584Z,93895.38
2022-12-31T02:36:34.468Z,93894.69
2022-12-31T02:37:37.924Z,93887.06
2022-12-31T02:38:43.063Z,93892.78
2022-12-31T02:39:44.782Z,93889.50
2022-12-31T02:40:46.567Z,93891.25
2022-12-31T02:41:48.514Z,93887.50
2022-12-31T02:42:55.089Z,93887.41
2022-12-31T02:43:57.167Z,93883.03
2022-12-31T02:45:01.673Z,93885.78
2022-12-31T02:46:12.874Z,93896.31
2022-12-31T02:47:24.703Z,93886.88
2022-12-31T02:48:39.860Z,93888.69
2022-12-31T02:49:53.613Z,93890.69
2022-12-31T02:51:06.552Z,93890.50
2022-12-31T02:54:06.102Z,93892.06
2022-12-31T02:55:15.980Z,93892.50
2022-12-31T02:56:24.415Z,93885.69
2022-12-31T02:57:30.660Z,93881.31
2022-12-31T02:58:41.411Z,93889.88
2022-12-31T02:59:51.831Z,93890.59
2022-12-31T03:00:57.950Z,93889.81
2022-12-31T03:02:06.458Z,93883.88
2022-12-31T03:03:10.468Z,93887.03
2022-12-31T03:04:13.759Z,93889.59
2022-12-31T03:05:18.913Z,93895.59
2022-12-31T03:06:20.436Z,93886.94
2022-12-31T03:07:24.744Z,93891.56
2022-12-31T03:08:26.714Z,93888.56
2022-12-31T03:09:28.235Z,93886.31
2022-12-31T03:10:32.550Z,93879.50
2022-12-31T03:11:34.061Z,93882.13
2022-12-31T03:12:36.138Z,93897.19
2022-12-31T03:13:37.617Z,93889.38
2022-12-31T03:14:39.078Z,93888.84
2022-12-31T03:15:40.556Z,93889.91
2022-12-31T03:16:42.133Z,93883.75
2022-12-31T03:17:45.140Z,93880.44
2022-12-31T03:18:46.638Z,93893.09
2022-12-31T03:19:48.223Z,93888.47
2022-12-31T03:20:51.184Z,93893.53
2022-12-31T03:21:52.792Z,93900.19
2022-12-31T03:22:54.319Z,93895.94
2022-12-31T03:23:55.816Z,93892.00
2022-12-31T03:25:00.047Z,93897.19
2022-12-31T03:26:02.925Z,93900.44
2022-12-31T03:27:04.454Z,93895.38
2022-12-31T03:28:08.248Z,93907.38
2022-12-31T03:29:09.772Z,93891.56
2022-12-31T03:30:13.256Z,93894.06
2022-12-31T03:31:14.895Z,93900.63
2022-12-31T03:32:16.451Z,93906.44
2022-12-31T03:33:20.718Z,93907.88
2022-12-31T03:34:22.232Z,93909.81
2022-12-31T03:35:25.131Z,93908.69
2022-12-31T03:36:26.611Z,93916.22
2022-12-31T03:37:28.084Z,93909.94
2022-12-31T03:38:29.621Z,93911.09
2022-12-31T03:39:31.075Z,93912.50
2022-12-31T03:40:36.778Z,93908.16
2022-12-31T03:41:38.264Z,93906.69
2022-12-31T03:42:40.084Z,93914.97
2022-12-31T03:43:41.576Z,93901.81
2022-12-31T03:44:43.646Z,93906.78
2022-12-31T03:45:47.477Z,93918.06
2022-12-31T03:46:48.955Z,93914.53
2022-12-31T03:47:53.415Z,93908.91
2022-12-31T03:48:56.231Z,93918.56
2022-12-31T03:49:57.729Z,93914.53
2022-12-31T03:50:59.262Z,93907.66
2022-12-31T03:52:00.755Z,93914.91
2022-12-31T03:53:02.341Z,93911.53
2022-12-31T03:54:03.844Z,93908.81
2022-12-31T03:55:06.465Z,93915.97
2022-12-31T03:56:07.985Z,93912.63
2022-12-31T03:57:09.691Z,93913.91
2022-12-31T03:58:11.549Z,93917.25
2022-12-31T03:59:13.110Z,93920.09
2022-12-31T04:00:17.546Z,93918.88
2022-12-31T04:01:19.089Z,93914.09
2022-12-31T04:02:26.307Z,93925.25
2022-12-31T04:03:29.942Z,93929.59
2022-12-31T04:04:32.859Z,93923.31
2022-12-31T04:05:34.395Z,93914.31
2022-12-31T04:06:35.941Z,93927.41
2022-12-31T04:07:37.858Z,93917.75
2022-12-31T04:08:39.339Z,93918.41
2022-12-31T04:09:40.832Z,93914.13
2022-12-31T04:10:42.331Z,93911.75
2022-12-31T04:11:43.787Z,93914.94
2022-12-31T04:12:54.428Z,93922.75
2022-12-31T04:13:55.924Z,93923.97
2022-12-31T04:14:57.482Z,93917.41
2022-12-31T04:15:59.046Z,93922.03
2022-12-31T04:17:00.666Z,93921.03
2022-12-31T04:18:02.382Z,93919.47
2022-12-31T04:19:04.009Z,93914.31
2022-12-31T04:20:08.460Z,93919.00
2022-12-31T04:21:10.002Z,93923.00
2022-12-31T04:22:11.530Z,93917.09
2022-12-31T04:23:13.046Z,93919.81
2022-12-31T04:24:14.756Z,93921.66
2022-12-31T04:25:34.795Z,93922.38
2022-12-31T04:26:36.381Z,93922.47
2022-12-31T04:27:38.956Z,93929.47
2022-12-31T04:28:40.486Z,93928.81
2022-12-31T04:29:41.970Z,93934.91
2022-12-31T04:30:43.521Z,93944.03
2022-12-31T04:31:45.148Z,93945.22
2022-12-31T04:32:46.664Z,93947.47
2022-12-31T04:33:48.242Z,93953.63
2022-12-31T04:34:49.727Z,93947.69
2022-12-31T04:35:52.659Z,93948.06
2022-12-31T04:36:54.175Z,93950.06
2022-12-31T04:37:55.654Z,93953.63
2022-12-31T04:38:57.242Z,93949.44
2022-12-31T04:40:05.182Z,93954.34
2022-12-31T04:41:07.600Z,93952.31
2022-12-31T04:42:09.100Z,93956.34
2022-12-31T04:43:10.595Z,93957.16
2022-12-31T04:44:12.097Z,93956.41
2022-12-31T04:45:13.628Z,93961.16
2022-12-31T04:46:16.190Z,93960.75
2022-12-31T04:47:23.427Z,93953.31
2022-12-31T04:48:25.425Z,93952.66
2022-12-31T04:49:26.894Z,93958.31
2022-12-31T04:50:28.421Z,93963.13
2022-12-31T04:51:31.592Z,93962.06
2022-12-31T04:52:38.625Z,93962.75
2022-12-31T04:53:43.832Z,93958.69
2022-12-31T04:54:45.325Z,93949.06
2022-12-31T04:55:46.811Z,93955.59
2022-12-31T04:56:48.273Z,93945.13
2022-12-31T04:57:49.761Z,93948.00
2022-12-31T04:58:51.319Z,93953.78
2022-12-31T04:59:52.817Z,93959.94
2022-12-31T05:00:54.485Z,93961.31
2022-12-31T05:01:56.253Z,93969.31
2022-12-31T05:02:57.954Z,93967.84
2022-12-31T05:03:59.437Z,93961.53
2022-12-31T05:05:00.902Z,93971.88
2022-12-31T05:06:03.615Z,93965.13
2022-12-31T05:07:06.518Z,93966.81
2022-12-31T05:08:08.110Z,93964.44
2022-12-31T05:09:09.598Z,93967.91
2022-12-31T05:10:11.106Z,93979.72
2022-12-31T05:11:12.706Z,93980.53
2022-12-31T05:12:14.382Z,93988.28
2022-12-31T05:13:16.343Z,93984.19
2022-12-31T05:14:17.922Z,93985.19
2022-12-31T05:15:19.464Z,93987.91
2022-12-31T05:16:21.060Z,93981.09
2022-12-31T05:17:22.568Z,93987.81
2022-12-31T05:18:24.257Z,93988.56
2022-12-31T05:19:25.783Z,93998.44
2022-12-31T05:20:27.289Z,93994.19
2022-12-31T05:21:28.829Z,93989.53
2022-12-31T05:22:31.684Z,93992.72
2022-12-31T05:23:33.269Z,93992.72
2022-12-31T05:24:34.752Z,93994.63
2022-12-31T05:25:36.570Z,93985.56
2022-12-31T05:26:38.152Z,93986.09
2022-12-31T05:27:39.676Z,93994.47
2022-12-31T05:28:41.383Z,93993.91
2022-12-31T05:29:42.855Z,94002.19
2022-12-31T05:30:44.980Z,93996.81
2022-12-31T05:31:46.508Z,93998.63
2022-12-31T05:32:48.047Z,93993.84
2022-12-31T05:33:49.544Z,94001.00
2022-12-31T05:34:51.054Z,93998.63
2022-12-31T05:35:52.543Z,93996.81
2022-12-31T05:36:54.045Z,93995.81
2022-12-31T05:37:56.876Z,93999.63
2022-12-31T05:38:58.347Z,93987.69
2022-12-31T05:40:00.041Z,93992.44
2022-12-31T05:41:03.388Z,93994.09
2022-12-31T05:42:05.000Z,93987.09
2022-12-31T05:43:07.244Z,93988.00
2022-12-31T05:44:10.699Z,93992.22
2022-12-31T05:45:12.691Z,93991.47
2022-12-31T05:46:14.210Z,93990.53
2022-12-31T05:47:16.160Z,93984.53
2022-12-31T05:48:17.645Z,93985.56
2022-12-31T05:49:19.151Z,93984.38
2022-12-31T05:50:38.827Z,93995.69
2022-12-31T05:51:40.361Z,93990.97
2022-12-31T05:52:47.285Z,93991.72
2022-12-31T05:53:50.546Z,93992.97
2022-12-31T05:54:52.055Z,93997.06
2022-12-31T05:55:53.524Z,93990.97
2022-12-31T05:56:55.051Z,94005.25
2022-12-31T05:57:56.592Z,94005.50
2022-12-31T05:58:58.123Z,94004.59
2022-12-31T05:59:59.696Z,94001.25
2022-12-31T06:01:01.230Z,94004.66
2022-12-31T06:02:02.792Z,94010.25
2022-12-31T06:03:04.507Z,94010.81
2022-12-31T06:04:06.160Z,94002.00
2022-12-31T06:05:08.515Z,94010.00
2022-12-31T06:06:10.037Z,94010.97
2022-12-31T06:07:11.536Z,94008.50
2022-12-31T06:08:12.994Z,94011.25
2022-12-31T06:09:17.267Z,94013.75
2022-12-31T06:10:19.832Z,94018.44
2022-12-31T06:11:21.331Z,94024.63
2022-12-31T06:12:22.807Z,94027.53
2022-12-31T06:13:24.331Z,94027.25
2022-12-31T06:14:25.932Z,94036.25
2022-12-31T06:15:27.439Z,94033.00
2022-12-31T06:16:28.935Z,94035.72
2022-12-31T06:17:30.637Z,94044.63
2022-12-31T06:18:32.113Z,94040.63
2022-12-31T06:19:33.573Z,94030.44
2022-12-31T06:20:36.467Z,94034.81
2022-12-31T06:21:37.966Z,94022.47
2022-12-31T06:22:39.516Z,94029.28
2022-12-31T06:23:41.041Z,94022.53
2022-12-31T06:24:44.015Z,94021.09
2022-12-31T06:25:45.809Z,94028.91
2022-12-31T06:26:47.348Z,94025.00
2022-12-31T06:27:48.847Z,94025.28
2022-12-31T06:28:50.385Z,94019.00
2022-12-31T06:29:51.858Z,94002.91
2022-12-31T06:30:59.598Z,94014.75
2022-12-31T06:32:01.139Z,94019.56
2022-12-31T06:33:11.795Z,94020.00
2022-12-31T06:34:13.288Z,94020.19
2022-12-31T06:35:14.792Z,94037.56
2022-12-31T06:36:16.419Z,94030.63
2022-12-31T06:37:17.995Z,94033.00
2022-12-31T06:38:19.531Z,94039.81
2022-12-31T06:39:21.019Z,94037.91
2022-12-31T06:40:24.037Z,94031.38
2022-12-31T06:41:25.492Z,94032.28
2022-12-31T06:42:28.256Z,94038.47
2022-12-31T06:43:29.960Z,94038.28
2022-12-31T06:44:31.461Z,94032.03
2022-12-31T06:45:33.006Z,94037.28
2022-12-31T06:46:34.559Z,94031.09
2022-12-31T06:47:36.093Z,94043.66
2022-12-31T06:48:38.608Z,94046.91
2022-12-31T06:49:58.366Z,94045.91
2022-12-31T06:51:03.815Z,94046.91
2022-12-31T06:52:05.319Z,94048.88
2022-12-31T06:53:09.699Z,94040.19
2022-12-31T06:54:11.735Z,94039.63
2022-12-31T06:55:14.403Z,94035.81
2022-12-31T06:56:19.616Z,94027.91
2022-12-31T06:57:22.909Z,94026.81
2022-12-31T06:58:24.932Z,94029.47
2022-12-31T06:59:28.473Z,94029.81
2022-12-31T07:00:30.467Z,94031.09
2022-12-31T07:01:49.855Z,94028.09
2022-12-31T07:03:30.397Z,94035.53
2022-12-31T07:05:04.753Z,94035.28
2022-12-31T07:06:11.675Z,94032.28
2022-12-31T07:07:20.978Z,94034.94
2022-12-31T07:08:37.362Z,94039.44
2022-12-31T07:09:51.335Z,94047.09
2022-12-31T07:10:59.506Z,94045.34
2022-12-31T07:12:06.487Z,94052.81
2022-12-31T07:13:21.954Z,94053.25
2022-12-31T07:14:31.511Z,94049.28
2022-12-31T07:16:02.888Z,94055.34
2022-12-31T07:17:18.402Z,94046.53
2022-12-31T07:18:41.038Z,94052.72
2022-12-31T07:19:57.484Z,94047.72
2022-12-31T07:20:59.938Z,94045.19
2022-12-31T07:22:02.934Z,94041.19
2022-12-31T07:23:04.964Z,94045.09
2022-12-31T07:24:07.657Z,94044.81
2022-12-31T07:25:13.382Z,94050.75
2022-12-31T07:26:30.830Z,94050.91
2022-12-31T07:28:06.049Z,94053.47
2022-12-31T07:29:14.675Z,94058.72
2022-12-31T07:30:19.605Z,94056.16
2022-12-31T07:31:33.915Z,94064.34
2022-12-31T07:33:00.476Z,94063.16
2022-12-31T07:34:08.146Z,94063.25
2022-12-31T07:35:21.490Z,94059.97
2022-12-31T07:36:35.204Z,94059.97
2022-12-31T07:37:42.441Z,94063.44
2022-12-31T07:38:53.139Z,94070.41
2022-12-31T07:40:03.290Z,94076.69
2022-12-31T07:41:16.719Z,94068.69
2022-12-31T07:42:23.971Z,94067.16
2022-12-31T07:43:34.400Z,94070.88
2022-12-31T07:44:58.248Z,94065.72
2022-12-31T07:46:07.411Z,94069.59
2022-12-31T07:47:20.595Z,94074.78
2022-12-31T07:48:24.801Z,94079.34
2022-12-31T07:49:28.628Z,94079.34
2022-12-31T07:50:30.939Z,94078.53
2022-12-31T07:51:33.007Z,94079.78
2022-12-31T07:52:35.101Z,94069.69
2022-12-31T07:53:36.762Z,94078.25
2022-12-31T07:54:38.240Z,94070.69
2022-12-31T07:55:39.790Z,94079.34
2022-12-31T07:56:42.027Z,94072.91
2022-12-31T07:57:52.283Z,94078.25
2022-12-31T07:59:06.224Z,94074.91
2022-12-31T08:00:12.919Z,94081.81
2022-12-31T08:01:19.443Z,94081.91
2022-12-31T08:02:30.590Z,94082.25
2022-12-31T08:03:47.655Z,94085.53
2022-12-31T08:04:57.980Z,94084.97
2022-12-31T08:06:10.409Z,94088.16
2022-12-31T08:07:21.364Z,94096.00
2022-12-31T08:08:35.176Z,94097.25
2022-12-31T08:09:46.736Z,94088.34
2022-12-31T08:11:00.745Z,94086.88
2022-12-31T08:12:02.825Z,94093.59
2022-12-31T08:13:10.189Z,94107.59
2022-12-31T08:14:14.654Z,94100.34
2022-12-31T08:15:30.303Z,94107.47
2022-12-31T08:16:37.651Z,94099.25
2022-12-31T08:17:39.607Z,94106.59
2022-12-31T08:18:41.650Z,94105.44
2022-12-31T08:19:43.882Z,94107.53
2022-12-31T08:20:55.543Z,94112.09
2022-12-31T08:22:18.487Z,94114.25
2022-12-31T08:23:28.791Z,94120.09
2022-12-31T08:24:40.219Z,94112.72
2022-12-31T08:25:51.080Z,94116.44
2022-12-31T08:27:02.025Z,94105.72
2022-12-31T08:28:13.605Z,94104.81
2022-12-31T08:30:57.989Z,94106.69
2022-12-31T08:32:08.279Z,94099.16
2022-12-31T08:33:17.027Z,94101.53
2022-12-31T08:34:29.783Z,94105.44
2022-12-31T08:35:47.399Z,94103.63
2022-12-31T08:36:55.168Z,94107.88
2022-12-31T08:38:08.423Z,94116.53
2022-12-31T08:39:23.592Z,94108.53
2022-12-31T08:40:31.472Z,94116.34
2022-12-31T08:41:42.946Z,94101.44
2022-12-31T08:43:00.868Z,94103.31
2022-12-31T08:44:12.318Z,94105.50
2022-12-31T08:45:19.959Z,94099.84
2022-12-31T08:46:27.890Z,94105.88
2022-12-31T08:47:38.679Z,94102.97
2022-12-31T08:48:42.645Z,94105.25
2022-12-31T08:49:44.565Z,94115.41
2022-12-31T08:50:46.556Z,94114.59
2022-12-31T08:51:48.554Z,94111.22
2022-12-31T08:52:50.568Z,94115.13
2022-12-31T08:53:53.315Z,94112.25
2022-12-31T08:54:55.308Z,94114.81
2022-12-31T08:56:07.735Z,94110.22
2022-12-31T08:57:19.992Z,94116.19
2022-12-31T08:58:34.267Z,94103.41
2022-12-31T08:59:41.348Z,94109.81
2022-12-31T09:00:46.356Z,94107.41
2022-12-31T09:02:01.578Z,94106.94
2022-12-31T09:03:19.031Z,94097.63
2022-12-31T09:04:30.888Z,94097.06
2022-12-31T09:05:38.886Z,94096.19
2022-12-31T09:06:46.863Z,94092.09
2022-12-31T09:08:00.846Z,94097.31
2022-12-31T09:09:10.492Z,94100.34
2022-12-31T09:10:18.160Z,94094.53
2022-12-31T09:11:28.264Z,94095.31
2022-12-31T09:12:35.631Z,94098.44
2022-12-31T09:13:54.152Z,94099.38
2022-12-31T09:15:03.702Z,94091.16
2022-12-31T09:16:13.886Z,94093.16
2022-12-31T09:17:38.104Z,94093.84
2022-12-31T09:18:41.488Z,94106.72
2022-12-31T09:19:46.584Z,94099.88
2022-12-31T09:20:48.469Z,94105.88
2022-12-31T09:21:50.393Z,94108.22
2022-12-31T09:22:53.024Z,94106.66
2022-12-31T09:23:55.163Z,94114.00
2022-12-31T09:24:56.988Z,94112.56
2022-12-31T09:26:06.126Z,94124.78
2022-12-31T09:27:15.543Z,94119.69
2022-12-31T09:28:28.525Z,94129.75
2022-12-31T09:29:46.421Z,94131.50
2022-12-31T09:30:54.001Z,94127.44
2022-12-31T09:32:06.178Z,94124.03
2022-12-31T09:33:12.392Z,94127.50
2022-12-31T09:34:23.547Z,94131.22
2022-12-31T09:35:35.332Z,94139.78
2022-12-31T09:36:41.791Z,94131.78
2022-12-31T09:37:46.491Z,94132.09
2022-12-31T09:38:52.715Z,94128.75
2022-12-31T09:39:59.348Z,94133.09
2022-12-31T09:41:36.651Z,94135.41
2022-12-31T09:43:33.434Z,94134.19
2022-12-31T09:45:02.844Z,94124.00
2022-12-31T09:46:23.778Z,94129.88
2022-12-31T09:47:50.833Z,94126.41
2022-12-31T09:49:20.414Z,94133.00
2022-12-31T09:50:51.274Z,94120.69
2022-12-31T09:52:07.716Z,94115.47
2022-12-31T09:53:31.705Z,94111.81
2022-12-31T09:54:54.052Z,94106.56
2022-12-31T09:56:02.780Z,94113.34
2022-12-31T09:57:22.666Z,94114.91
2022-12-31T09:58:37.962Z,94117.47
2022-12-31T09:59:48.209Z,94115.28
2022-12-31T10:00:53.143Z,94121.81
2022-12-31T10:01:57.548Z,94115.72
2022-12-31T10:03:25.386Z,94118.44
2022-12-31T10:04:52.481Z,94111.06
2022-12-31T10:06:07.392Z,94106.59
2022-12-31T10:07:24.717Z,94114.03
2022-12-31T10:08:43.030Z,94116.81
2022-12-31T10:09:59.718Z,94121.22
2022-12-31T10:11:10.478Z,94121.03
2022-12-31T10:12:37.466Z,94118.59
2022-12-31T10:13:53.614Z,94120.09
2022-12-31T10:15:14.324Z,94118.53
2022-12-31T10:16:28.260Z,94117.94
2022-12-31T10:17:42.902Z,94116.00
2022-12-31T10:19:03.887Z,94120.28
2022-12-31T10:20:33.361Z,94118.81
2022-12-31T10:21:52.333Z,94110.63
2022-12-31T10:23:20.853Z,94108.19
2022-12-31T10:24:42.647Z,94110.16
2022-12-31T10:26:04.565Z,94108.06
2022-12-31T10:27:19.452Z,94110.34
2022-12-31T10:28:30.914Z,94109.34
2022-12-31T10:29:39.456Z,94106.63
2022-12-31T10:30:50.201Z,94109.22
2022-12-31T10:32:05.518Z,94109.34
2022-12-31T10:33:15.359Z,94105.25
2022-12-31T10:34:26.413Z,94106.09
2022-12-31T10:35:36.081Z,94106.50
2022-12-31T10:36:53.758Z,94099.38
2022-12-31T10:38:05.870Z,94098.63
2022-12-31T10:39:24.452Z,94094.50
2022-12-31T10:40:47.101Z,94099.78
2022-12-31T10:42:32.189Z,94100.41
2022-12-31T10:44:14.263Z,94099.56
2022-12-31T10:45:42.136Z,94100.47
2022-12-31T10:47:07.717Z,94094.38
2022-12-31T10:48:34.278Z,94090.03
2022-12-31T10:50:21.692Z,94093.94
2022-12-31T10:51:45.169Z,94088.84
2022-12-31T10:53:16.891Z,94091.06
2022-12-31T10:54:43.502Z,94094.31
2022-12-31T10:56:00.869Z,94101.09
2022-12-31T10:57:39.832Z,94097.22
2022-12-31T10:59:15.858Z,94089.91
2022-12-31T11:00:20.127Z,94089.91
2022-12-31T11:01:33.249Z,94096.03
2022-12-31T11:03:25.154Z,94099.88
2022-12-31T11:04:58.553Z,94088.72
2022-12-31T11:06:30.859Z,94092.56
2022-12-31T11:07:52.361Z,94089.13
2022-12-31T11:09:39.759Z,94095.47
2022-12-31T11:11:00.795Z,94097.31
2022-12-31T11:12:11.751Z,94096.28
2022-12-31T11:13:58.959Z,94095.03
2022-12-31T11:15:15.128Z,94090.97
2022-12-31T11:16:44.755Z,94092.41
2022-12-31T11:18:00.303Z,94088.31
2022-12-31T11:19:12.706Z,94095.47
2022-12-31T11:20:48.485Z,94087.50
2022-12-31T11:22:10.761Z,94081.19
2022-12-31T11:23:28.221Z,94079.78
2022-12-31T11:24:41.536Z,94079.00
2022-12-31T11:25:52.730Z,94084.88
2022-12-31T11:27:13.983Z,94084.25
2022-12-31T11:28:39.551Z,94082.84
2022-12-31T11:30:01.283Z,94079.78
2022-12-31T11:31:15.166Z,94073.47
2022-12-31T11:32:29.904Z,94075.09
2022-12-31T11:33:50.551Z,94075.69
2022-12-31T11:35:20.689Z,94075.50
2022-12-31T11:36:33.039Z,94067.31
2022-12-31T11:37:45.096Z,94067.53
2022-12-31T11:38:51.551Z,94062.28
2022-12-31T11:40:02.037Z,94060.44
2022-12-31T11:41:07.481Z,94065.72
2022-12-31T11:42:20.293Z,94067.72
2022-12-31T11:43:27.326Z,94068.38
2022-12-31T11:44:36.274Z,94068.56
2022-12-31T11:46:08.285Z,94072.66
2022-12-31T11:48:12.177Z,94068.56
2022-12-31T11:49:43.165Z,94062.66
2022-12-31T11:50:54.989Z,94056.34
2022-12-31T11:52:27.162Z,94053.47
2022-12-31T11:53:57.419Z,94054.88
2022-12-31T11:55:35.785Z,94047.34
2022-12-31T11:56:40.217Z,94047.34
2022-12-31T11:57:48.667Z,94036.53
2022-12-31T11:58:52.892Z,94039.41
2022-12-31T11:59:57.637Z,94039.16
2022-12-31T12:01:04.300Z,94035.06
2022-12-31T12:02:23.238Z,94034.06
2022-12-31T12:03:25.246Z,94034.25
2022-12-31T12:04:27.309Z,94034.22
2022-12-31T12:05:29.538Z,94033.44
2022-12-31T12:06:32.539Z,94030.56
2022-12-31T12:07:34.049Z,94038.72
2022-12-31T12:08:37.789Z,94035.06
2022-12-31T12:09:39.940Z,94035.09
2022-12-31T12:10:45.110Z,94039.16
2022-12-31T12:11:46.646Z,94036.47
2022-12-31T12:12:48.181Z,94028.75
2022-12-31T12:13:49.820Z,94034.03
2022-12-31T12:14:53.845Z,94026.25
2022-12-31T12:15:57.847Z,94019.91
2022-12-31T12:17:04.665Z,94022.56
2022-12-31T12:18:09.839Z,94025.63
2022-12-31T12:19:18.337Z,94021.13
2022-12-31T12:20:25.356Z,94016.00
2022-12-31T12:21:26.914Z,94027.25
2022-12-31T12:22:29.477Z,94026.84
2022-12-31T12:23:30.963Z,94027.00
2022-12-31T12:24:33.802Z,94027.09
2022-12-31T12:25:40.729Z,94028.03
2022-12-31T12:26:43.463Z,94022.13
2022-12-31T12:27:45.101Z,94028.81
2022-12-31T12:28:46.615Z,94031.19
2022-12-31T12:29:48.118Z,94020.06
2022-12-31T12:30:59.898Z,94029.63
2022-12-31T12:32:04.143Z,94032.69
2022-12-31T12:33:15.599Z,94023.13
2022-12-31T12:34:23.893Z,94020.06
2022-12-31T12:35:27.755Z,94023.25
2022-12-31T12:36:29.258Z,94022.41
2022-12-31T12:37:32.539Z,94023.78
2022-12-31T12:38:34.560Z,94019.44
2022-12-31T12:39:37.449Z,94020.44
2022-12-31T12:45:05.182Z,94025.44
2022-12-31T12:46:18.260Z,94020.38
2022-12-31T12:47:19.819Z,94017.03
2022-12-31T12:48:30.681Z,94019.53
2022-12-31T12:49:38.455Z,94024.81
2022-12-31T12:50:44.709Z,94023.97
2022-12-31T12:52:02.977Z,94014.97
2022-12-31T12:53:18.100Z,94013.34
2022-12-31T12:54:35.056Z,94019.13
2022-12-31T12:55:46.732Z,94020.22
2022-12-31T12:56:55.697Z,94018.03
2022-12-31T12:58:04.030Z,94025.78
2022-12-31T12:59:34.978Z,94014.16
2022-12-31T13:00:43.766Z,94027.47
2022-12-31T13:01:54.963Z,94017.88
2022-12-31T13:03:13.321Z,94023.56
2022-12-31T13:04:41.672Z,94024.59
2022-12-31T13:05:55.968Z,94022.72
2022-12-31T13:07:09.755Z,94025.81
2022-12-31T13:08:25.620Z,94026.63
2022-12-31T13:09:42.322Z,94020.47
2022-12-31T13:11:00.803Z,94020.47
2022-12-31T13:12:13.935Z,94027.56
2022-12-31T13:13:26.905Z,94022.72
2022-12-31T13:14:34.174Z,94021.53
2022-12-31T13:15:44.267Z,94028.03
2022-12-31T13:16:55.212Z,94028.22
2022-12-31T13:18:07.912Z,94034.75
2022-12-31T13:19:16.355Z,94031.69
2022-12-31T13:20:28.989Z,94030.44
2022-12-31T13:21:37.152Z,94022.72
2022-12-31T13:22:56.130Z,94023.09
2022-12-31T13:27:00.561Z,94013.34
2022-12-31T13:28:05.060Z,94017.63
2022-12-31T13:29:15.449Z,94024.97